Main page
METAR-TAF:

METAR-TAF

Airports :

Lac qui Parle County Airport

Madison, Minnesota, United States

latitude: 44-59-10N, longitude: 096-10-40W, elevation: 1082 ft

Current weather observation

The report was made 17 minutes ago, at 09:15 UTC
Wind 10 mph from the Southeast
Temperature 41°F
Humidity 75%
Pressure 29.95 in. Hg
Visibility: 10 miles
Clear sky

METAR: KDXX 130915Z AUTO 14009KT 10SM CLR 05/01 A2995 RMK AO2

Time: 04:32 (09:32 UTC)


TAF: missing

Weather observations and forecasts of more than 4000 airports (METAR and TAF reports).

The available stations are represented by yellow and red dots on the map.

Hover mouse over dot to see the name of the station.

Then click to see weather observations and forecasts.

To change the map : click on the green buttons with a black cross to zoom in, on the green button with a dash to zoom out, or on the green arrows for adjacent maps.


METAR-TAF: